CW4772 Weather Reports


Display with metric or nautical units.
time (UTC)temp
F
wind
direction
speed
MPH
gust
MPH
rain 1hr
in
rain 24hr
in
rain mn
in
humidity
%
barometer
mb
20190124060217 21 18 1.0 3.0 0.00 0.00 0.00 92 1006.6
20190124053216 21 26 2.0 3.0 0.00 0.00 0.00 92 1006.2
20190124050218 21 27 2.0 5.0 0.00 0.00 0.00 92 1005.7
20190124040217 21 27 2.0 3.0 0.00 0.00 0.00 91 1005.3
20190124033216 21 36 2.0 3.0 0.00 0.00 0.00 92 1005.3
20190124030216 21 65 2.0 3.0 0.00 0.00 0.00 92 1005.0
20190124023216 21 65 0.0 0.0 0.00 0.00 0.00 92 1004.9
20190124020216 21 64 1.0 3.0 0.00 0.00 0.00 90 1004.8
20190124010216 21 23 2.0 3.0 0.00 0.00 0.00 89 1004.3
20190124003216 21 76 2.0 3.0 0.00 0.00 0.00 89 1003.9
20190124000217 21 24 2.0 3.0 0.00 0.00 0.00 89 1003.7
20190123233216 21 63 2.0 5.0 0.00 0.00 0.00 88 1003.5
20190123230216 21 58 2.0 5.0 0.00 0.00 0.00 87 1003.4
20190123220216 21 85 2.0 6.0 0.00 0.00 0.00 85 1003.3
20190123213216 20 64 3.0 5.0 0.00 0.00 0.00 85 1002.9
20190123210217 20 54 2.0 7.0 0.00 0.00 0.00 84 1002.9
20190123200217 20 90 2.0 6.0 0.00 0.00 0.00 85 1002.5
20190123193217 20 66 2.0 7.0 0.00 0.00 0.00 85 1002.3
20190123190216 20 83 3.0 5.0 0.00 0.00 0.00 85 1002.2
20190123183217 20 97 2.0 6.0 0.00 0.00 0.00 86 1001.9
20190123180217 20 99 2.0 6.0 0.00 0.00 0.00 85 1001.7
20190123173217 19 70 2.0 9.0 0.00 0.00 0.00 84 1001.7
20190123163217 20 72 3.0 13.0 0.00 0.00 0.00 81 1001.2
20190123160216 20 113 1.0 3.0 0.00 0.00 0.00 80 1001.3
20190123140217 22 78 4.0 8.0 0.00 0.00 0.00 76 1000.2
20190123130216 21 84 3.0 7.0 0.00 0.00 0.00 78 1000.2
20190123123216 21 94 3.0 6.0 0.00 0.00 0.00 78 1000.4
20190123113217 21 93 3.0 7.0 0.00 0.00 0.00 74 1000.5
20190123103216 19 107 2.0 3.0 0.00 0.00 0.00 76 1001.3
20190123100216 18 108 1.0 3.0 0.00 0.00 0.00 75 1001.6
20190123090217 17 119 3.0 9.0 0.00 0.00 0.00 82 1001.7
20190123083216 15 115 2.0 6.0 0.00 0.00 0.00 87 1001.8
20190123070217 10 116 0.0 2.0 0.00 0.00 0.00 84 1002.1
20190123063217 11 115 0.0 0.0 0.00 0.00 0.00 81 1002.1